createdAt,value
2017-10-11T00:00:55.191Z,9.73
2017-10-11T00:01:55.582Z,9.68
2017-10-11T00:02:57.434Z,9.75
2017-10-11T00:03:59.349Z,9.68
2017-10-11T00:04:59.083Z,9.70
2017-10-11T00:05:57.567Z,9.68
2017-10-11T00:06:56.961Z,9.66
2017-10-11T00:07:55.810Z,9.75
2017-10-11T00:08:55.578Z,9.78
2017-10-11T00:09:55.675Z,9.75
2017-10-11T00:10:55.650Z,9.76
2017-10-11T00:11:55.697Z,9.81
2017-10-11T00:12:55.746Z,9.81
2017-10-11T00:13:55.791Z,9.76
2017-10-11T00:14:55.906Z,9.75
2017-10-11T00:15:56.071Z,9.71
2017-10-11T00:16:58.586Z,9.70
2017-10-11T00:17:56.544Z,9.70
2017-10-11T00:18:56.530Z,9.68
2017-10-11T00:19:56.919Z,9.73
2017-10-11T00:20:58.552Z,9.68
2017-10-11T00:21:56.591Z,9.66
2017-10-11T00:22:57.080Z,9.66
2017-10-11T00:23:58.947Z,9.71
2017-10-11T00:24:57.374Z,9.68
2017-10-11T00:25:56.634Z,9.71
2017-10-11T00:26:56.424Z,9.68
2017-10-11T00:27:56.945Z,9.79
2017-10-11T00:28:56.510Z,9.79
2017-10-11T00:30:00.465Z,9.75
2017-10-11T00:30:58.230Z,9.71
2017-10-11T00:31:57.060Z,9.76
2017-10-11T00:32:56.908Z,9.76
2017-10-11T00:33:58.091Z,9.70
2017-10-11T00:35:01.551Z,9.66
2017-10-11T00:35:57.950Z,9.76
2017-10-11T00:36:57.023Z,9.68
2017-10-11T00:37:58.255Z,9.75
2017-10-11T00:38:57.247Z,9.76
2017-10-11T00:39:57.906Z,9.76
2017-10-11T00:40:57.271Z,9.76
2017-10-11T00:41:57.790Z,9.78
2017-10-11T00:42:57.903Z,9.76
2017-10-11T00:43:58.243Z,9.78
2017-10-11T00:44:57.227Z,9.79
2017-10-11T00:45:57.642Z,9.78
2017-10-11T00:46:58.161Z,9.81
2017-10-11T00:47:58.507Z,9.79
2017-10-11T00:48:57.412Z,9.85
2017-10-11T00:49:57.876Z,9.81
2017-10-11T00:50:58.795Z,9.78
2017-10-11T00:51:58.723Z,9.81
2017-10-11T00:52:58.213Z,9.73
2017-10-11T00:53:58.276Z,9.78
2017-10-11T00:54:57.700Z,9.67
2017-10-11T00:55:57.807Z,9.67
2017-10-11T00:56:58.217Z,9.71
2017-10-11T00:57:57.827Z,9.67
2017-10-11T00:58:57.876Z,9.73
2017-10-11T00:59:57.922Z,9.70
2017-10-11T01:00:58.038Z,9.71
2017-10-11T01:01:58.010Z,9.70
2017-10-11T01:02:58.063Z,9.61
2017-10-11T01:03:58.106Z,9.66
2017-10-11T01:04:58.150Z,9.61
2017-10-11T01:05:58.264Z,9.60
2017-10-11T01:06:58.244Z,9.58
2017-10-11T01:07:58.290Z,9.57
2017-10-11T01:08:58.337Z,9.64
2017-10-11T01:09:58.381Z,9.60
2017-10-11T01:10:58.513Z,9.57
2017-10-11T01:11:58.475Z,9.61
2017-10-11T01:12:58.519Z,9.64
2017-10-11T01:13:58.571Z,9.64
2017-10-11T01:14:58.612Z,9.71
2017-10-11T01:15:58.726Z,9.66
2017-10-11T01:16:58.769Z,9.67
2017-10-11T01:17:58.755Z,9.71
2017-10-11T01:18:58.799Z,9.68
2017-10-11T01:19:58.845Z,9.76
2017-10-11T01:20:58.892Z,9.75
2017-10-11T01:21:59.002Z,9.73
2017-10-11T01:22:59.603Z,9.76
2017-10-11T01:23:59.030Z,9.67
2017-10-11T01:24:59.076Z,9.61
2017-10-11T01:25:59.120Z,9.56
2017-10-11T01:26:59.239Z,9.58
2017-10-11T01:27:59.213Z,9.53
2017-10-11T01:28:59.261Z,9.56
2017-10-11T01:29:59.308Z,9.48
2017-10-11T01:30:59.354Z,9.48
2017-10-11T01:31:59.465Z,9.50
2017-10-11T01:32:59.445Z,9.48
2017-10-11T01:33:59.494Z,9.48
2017-10-11T01:34:59.538Z,9.52
2017-10-11T01:35:59.585Z,9.46
2017-10-11T01:37:00.178Z,9.49
2017-10-11T01:37:59.676Z,9.48
2017-10-11T01:38:59.725Z,9.45
2017-10-11T01:39:59.774Z,9.49
2017-10-11T01:40:59.816Z,9.52
2017-10-11T01:41:59.937Z,9.48
2017-10-11T01:42:59.907Z,9.50
2017-10-11T01:43:59.953Z,9.49
2017-10-11T01:45:00.000Z,9.49
2017-10-11T01:46:00.052Z,9.49
2017-10-11T01:47:00.153Z,9.46
2017-10-11T01:48:00.206Z,9.56
2017-10-11T01:49:00.184Z,9.49
2017-10-11T01:50:00.244Z,9.46
2017-10-11T01:51:00.275Z,9.53
2017-10-11T01:52:00.406Z,9.49
2017-10-11T01:53:00.375Z,9.46
2017-10-11T01:54:00.415Z,9.50
2017-10-11T01:55:00.461Z,9.50
2017-10-11T01:56:00.508Z,9.48
2017-10-11T01:57:00.622Z,9.48
2017-10-11T01:58:00.599Z,9.50
2017-10-11T01:59:00.646Z,9.52
2017-10-11T02:00:00.696Z,9.53
2017-10-11T02:01:00.740Z,9.50
2017-10-11T02:02:00.851Z,9.56
2017-10-11T02:03:00.829Z,9.57
2017-10-11T02:04:00.878Z,9.58
2017-10-11T02:05:00.923Z,9.56
2017-10-11T02:06:00.967Z,9.60
2017-10-11T02:07:01.078Z,9.56
2017-10-11T02:08:01.124Z,9.58
2017-10-11T02:09:01.107Z,9.57
2017-10-11T02:10:01.156Z,9.57
2017-10-11T02:11:01.201Z,9.61
2017-10-11T02:12:01.244Z,9.61
2017-10-11T02:13:01.355Z,9.66
2017-10-11T02:14:01.336Z,9.61
2017-10-11T02:15:01.382Z,9.64
2017-10-11T02:16:01.431Z,9.61
2017-10-11T02:17:01.475Z,9.71
2017-10-11T02:18:01.589Z,9.67
2017-10-11T02:19:01.566Z,9.58
2017-10-11T02:20:01.613Z,9.60
2017-10-11T02:21:01.659Z,9.67
2017-10-11T02:22:01.706Z,9.68
2017-10-11T02:23:01.819Z,9.64
2017-10-11T02:24:01.804Z,9.64
2017-10-11T02:25:01.844Z,9.73
2017-10-11T02:26:01.890Z,9.64
2017-10-11T02:27:01.935Z,9.63
2017-10-11T02:28:02.048Z,9.64
2017-10-11T02:29:02.030Z,9.60
2017-10-11T02:30:02.075Z,9.61
2017-10-11T02:31:02.121Z,9.57
2017-10-11T02:32:02.165Z,9.66
2017-10-11T02:33:02.300Z,9.67
2017-10-11T02:34:02.263Z,9.66
2017-10-11T02:35:02.308Z,9.66
2017-10-11T02:36:02.353Z,9.64
2017-10-11T02:37:02.399Z,9.61
2017-10-11T02:38:02.512Z,9.66
2017-10-11T02:39:02.490Z,9.58
2017-10-11T02:40:02.536Z,9.61
2017-10-11T02:41:02.583Z,9.60
2017-10-11T02:42:02.627Z,9.58
2017-10-11T02:43:02.745Z,9.64
2017-10-11T02:44:02.720Z,9.58
2017-10-11T02:45:02.780Z,9.58
2017-10-11T02:46:02.814Z,9.60
2017-10-11T02:47:02.858Z,9.56
2017-10-11T02:48:02.968Z,9.57
2017-10-11T02:49:02.953Z,9.52
2017-10-11T02:50:02.995Z,9.56
2017-10-11T02:51:03.061Z,9.58
2017-10-11T02:52:03.088Z,9.52
2017-10-11T02:53:03.202Z,9.60
2017-10-11T02:54:03.249Z,9.48
2017-10-11T02:55:03.233Z,9.49
2017-10-11T02:56:03.273Z,9.50
2017-10-11T02:57:03.322Z,9.48
2017-10-11T02:58:03.430Z,9.48
2017-10-11T02:59:03.479Z,9.50
2017-10-11T03:00:03.464Z,9.49
2017-10-11T03:01:03.504Z,9.39
2017-10-11T03:02:03.550Z,9.43
2017-10-11T03:03:03.661Z,9.38
2017-10-11T03:04:03.644Z,9.30
2017-10-11T03:05:03.687Z,9.31
2017-10-11T03:06:03.740Z,9.34
2017-10-11T03:07:03.783Z,9.39
2017-10-11T03:08:03.889Z,9.31
2017-10-11T03:09:03.872Z,9.38
2017-10-11T03:10:03.922Z,9.28
2017-10-11T03:11:03.965Z,9.31
2017-10-11T03:12:04.013Z,9.28
2017-10-11T03:13:04.122Z,9.27
2017-10-11T03:14:04.169Z,9.20
2017-10-11T03:15:04.149Z,9.23
2017-10-11T03:16:04.196Z,9.16
2017-10-11T03:17:04.248Z,9.25
2017-10-11T03:18:04.353Z,9.23
2017-10-11T03:19:04.336Z,9.18
2017-10-11T03:20:04.379Z,9.16
2017-10-11T03:21:04.427Z,9.18
2017-10-11T03:22:04.471Z,9.13
2017-10-11T03:23:04.584Z,9.18
2017-10-11T03:24:04.566Z,9.15
2017-10-11T03:25:04.627Z,9.10
2017-10-11T03:26:04.655Z,9.15
2017-10-11T03:27:04.700Z,9.09
2017-10-11T03:28:04.825Z,9.10
2017-10-11T03:29:04.795Z,9.16
2017-10-11T03:30:04.845Z,9.13
2017-10-11T03:31:04.886Z,9.12
2017-10-11T03:32:04.933Z,9.10
2017-10-11T03:33:05.048Z,9.12
2017-10-11T03:34:05.088Z,8.99
2017-10-11T03:35:05.070Z,8.99
2017-10-11T03:36:05.117Z,9.01
2017-10-11T03:37:05.169Z,9.01
2017-10-11T03:38:05.207Z,9.01
2017-10-11T03:39:05.323Z,8.97
2017-10-11T03:40:05.301Z,8.96
2017-10-11T03:41:05.354Z,8.96
2017-10-11T03:42:05.392Z,8.88
2017-10-11T03:43:05.441Z,8.93
2017-10-11T03:44:05.632Z,8.91
2017-10-11T03:45:05.529Z,8.96
2017-10-11T03:46:05.576Z,8.91
2017-10-11T03:47:05.622Z,8.88
2017-10-11T03:48:05.666Z,8.96
2017-10-11T03:49:05.785Z,8.91
2017-10-11T03:50:05.757Z,8.87
2017-10-11T03:51:05.807Z,8.90
2017-10-11T03:52:05.856Z,8.91
2017-10-11T03:53:05.897Z,8.93
2017-10-11T03:54:06.010Z,8.91
2017-10-11T03:55:05.990Z,8.90
2017-10-11T03:56:06.035Z,8.87
2017-10-11T03:57:06.081Z,8.86
2017-10-11T03:58:06.125Z,8.94
2017-10-11T03:59:06.235Z,8.97
2017-10-11T04:00:06.219Z,8.91
2017-10-11T04:01:06.274Z,8.84
2017-10-11T04:02:06.310Z,8.81
2017-10-11T04:03:06.353Z,8.83
2017-10-11T04:04:06.470Z,8.91
2017-10-11T04:05:06.449Z,8.81
2017-10-11T04:06:06.493Z,8.90
2017-10-11T04:07:06.542Z,8.84
2017-10-11T04:08:06.589Z,8.81
2017-10-11T04:09:06.697Z,8.78
2017-10-11T04:10:06.678Z,8.79
2017-10-11T04:11:06.724Z,8.83
2017-10-11T04:12:06.771Z,8.79
2017-10-11T04:13:06.814Z,8.79
2017-10-11T04:14:06.925Z,8.86
2017-10-11T04:15:06.908Z,8.73
2017-10-11T04:16:06.953Z,8.76
2017-10-11T04:17:06.999Z,8.68
2017-10-11T04:18:07.761Z,8.72
2017-10-11T04:19:07.154Z,8.81
2017-10-11T04:20:07.136Z,8.75
2017-10-11T04:21:07.186Z,8.73
2017-10-11T04:22:07.230Z,8.71
2017-10-11T04:23:07.274Z,8.71
2017-10-11T04:24:07.390Z,8.76
2017-10-11T04:25:07.365Z,8.71
2017-10-11T04:26:07.429Z,8.75
2017-10-11T04:27:07.458Z,8.76
2017-10-11T04:28:07.505Z,8.78
2017-10-11T04:29:08.612Z,8.78
2017-10-11T04:30:07.599Z,8.81
2017-10-11T04:31:07.640Z,8.86
2017-10-11T04:32:07.687Z,8.84
2017-10-11T04:33:07.748Z,8.86
2017-10-11T04:34:07.843Z,8.87
2017-10-11T04:35:07.890Z,8.84
2017-10-11T04:36:07.873Z,8.84
2017-10-11T04:37:07.917Z,8.87
2017-10-11T04:38:07.961Z,8.87
2017-10-11T04:39:08.008Z,8.83
2017-10-11T04:40:08.118Z,8.84
2017-10-11T04:41:08.099Z,8.83
2017-10-11T04:42:08.142Z,8.79
2017-10-11T04:43:08.192Z,8.79
2017-10-11T04:44:08.236Z,8.72
2017-10-11T04:45:08.343Z,8.72
2017-10-11T04:46:08.327Z,8.69
2017-10-11T04:47:08.373Z,8.73
2017-10-11T04:48:08.420Z,8.71
2017-10-11T04:49:08.467Z,8.66
2017-10-11T04:50:08.593Z,8.72
2017-10-11T04:51:08.558Z,8.78
2017-10-11T04:52:08.602Z,8.72
2017-10-11T04:53:08.649Z,8.76
2017-10-11T04:54:08.694Z,8.75
2017-10-11T04:55:08.805Z,8.79
2017-10-11T04:56:08.849Z,8.68
2017-10-11T04:57:08.835Z,8.76
2017-10-11T04:58:08.876Z,8.79
2017-10-11T04:59:08.926Z,8.75
2017-10-11T05:00:08.973Z,8.66
2017-10-11T05:01:09.080Z,8.68
2017-10-11T05:02:09.061Z,8.63
2017-10-11T05:03:09.108Z,8.68
2017-10-11T05:04:09.153Z,8.75
2017-10-11T05:05:09.201Z,8.72
2017-10-11T05:06:09.311Z,8.71
2017-10-11T05:07:09.292Z,8.84
2017-10-11T05:08:10.112Z,8.72
2017-10-11T05:09:09.382Z,8.78
2017-10-11T05:10:09.435Z,8.79
2017-10-11T05:11:09.537Z,8.73
2017-10-11T05:12:09.520Z,8.72
2017-10-11T05:13:09.565Z,8.73
2017-10-11T05:14:09.610Z,8.84
2017-10-11T05:15:09.655Z,8.73
2017-10-11T05:16:09.770Z,8.76
2017-10-11T05:17:09.747Z,8.84
2017-10-11T05:18:09.792Z,8.76
2017-10-11T05:19:09.838Z,8.81
2017-10-11T05:20:09.882Z,8.81
2017-10-11T05:21:09.998Z,8.71
2017-10-11T05:22:09.976Z,8.69
2017-10-11T05:23:10.019Z,8.72
2017-10-11T05:24:10.067Z,8.71
2017-10-11T05:25:10.113Z,8.73
2017-10-11T05:26:10.222Z,8.73
2017-10-11T05:27:10.268Z,8.62
2017-10-11T05:28:10.249Z,8.73
2017-10-11T05:29:10.295Z,8.65
2017-10-11T05:30:10.339Z,8.65
2017-10-11T05:31:10.385Z,8.68
2017-10-11T05:32:10.499Z,8.76
2017-10-11T05:33:10.479Z,8.73
2017-10-11T05:34:10.525Z,8.76
2017-10-11T05:35:10.569Z,8.66
2017-10-11T05:36:10.613Z,8.71
2017-10-11T05:37:10.730Z,8.78
2017-10-11T05:38:10.705Z,8.73
2017-10-11T05:39:10.751Z,8.75
2017-10-11T05:40:10.798Z,8.73
2017-10-11T05:41:10.845Z,8.79
2017-10-11T05:42:10.971Z,8.84
2017-10-11T05:43:11.760Z,8.78
2017-10-11T05:44:10.981Z,8.81
2017-10-11T05:45:11.027Z,8.78
2017-10-11T05:46:13.350Z,8.73
2017-10-11T05:47:11.189Z,8.73
2017-10-11T05:48:11.163Z,8.76
2017-10-11T05:49:11.208Z,8.71
2017-10-11T05:50:11.252Z,8.79
2017-10-11T05:51:11.298Z,8.72
2017-10-11T05:52:14.496Z,8.73
2017-10-11T05:53:11.394Z,8.72
2017-10-11T05:54:14.072Z,8.66
2017-10-11T05:55:14.034Z,8.76
2017-10-11T05:56:14.169Z,8.65
2017-10-11T05:57:14.181Z,8.71
2017-10-11T05:58:15.508Z,8.78
2017-10-11T05:59:11.664Z,8.76
2017-10-11T06:00:11.711Z,8.83
2017-10-11T06:01:11.757Z,8.84
2017-10-11T06:02:11.802Z,8.84
2017-10-11T06:03:12.624Z,8.87
2017-10-11T06:04:11.892Z,8.88
2017-10-11T06:05:14.347Z,8.91
2017-10-11T06:06:13.718Z,8.99
2017-10-11T06:07:13.773Z,9.13
2017-10-11T06:08:14.686Z,9.23
2017-10-11T06:09:13.040Z,9.31
2017-10-11T06:10:14.425Z,9.32
2017-10-11T06:11:14.047Z,9.48
2017-10-11T06:12:14.489Z,9.49
2017-10-11T06:13:17.096Z,9.57
2017-10-11T06:14:14.352Z,9.58
2017-10-11T06:15:14.351Z,9.56
2017-10-11T06:16:14.949Z,9.63
2017-10-11T06:17:16.692Z,9.71
2017-10-11T06:18:17.172Z,9.76
2017-10-11T06:19:15.208Z,9.73
2017-10-11T06:20:15.226Z,9.78
2017-10-11T06:21:15.217Z,9.83
2017-10-11T06:22:15.149Z,9.76
2017-10-11T06:23:14.554Z,9.81
2017-10-11T06:24:15.352Z,9.82
2017-10-11T06:25:13.928Z,9.86
2017-10-11T06:26:15.542Z,9.85
2017-10-11T06:27:14.980Z,9.83
2017-10-11T06:28:14.157Z,9.85
2017-10-11T06:29:20.678Z,9.83
2017-10-11T06:30:17.274Z,9.83
2017-10-11T06:31:15.223Z,9.81
2017-10-11T06:32:15.932Z,9.82
2017-10-11T06:33:14.799Z,9.85
2017-10-11T06:34:14.552Z,9.81
2017-10-11T06:35:15.304Z,9.86
2017-10-11T06:36:16.517Z,9.91
2017-10-11T06:37:15.495Z,9.81
2017-10-11T06:38:15.062Z,9.85
2017-10-11T06:39:15.225Z,9.88
2017-10-11T06:40:14.251Z,9.78
2017-10-11T06:41:14.892Z,9.99
2017-10-11T06:42:17.601Z,9.96
2017-10-11T06:43:15.131Z,10.00
2017-10-11T06:44:18.665Z,9.93
2017-10-11T06:45:15.165Z,9.97
2017-10-11T06:46:14.873Z,10.09
2017-10-11T06:47:17.234Z,9.96
2017-10-11T06:48:15.929Z,10.07
2017-10-11T06:49:18.358Z,10.14
2017-10-11T06:50:15.682Z,10.21
2017-10-11T06:51:15.550Z,10.34
2017-10-11T06:52:16.192Z,10.36
2017-10-11T06:53:16.368Z,10.47
2017-10-11T06:54:16.111Z,10.56
2017-10-11T06:55:15.633Z,10.55
2017-10-11T06:56:16.265Z,10.56
2017-10-11T06:57:17.592Z,10.58
2017-10-11T06:58:16.539Z,10.62
2017-10-11T06:59:15.563Z,10.68
2017-10-11T07:00:16.115Z,10.80
2017-10-11T07:01:15.985Z,10.76
2017-10-11T07:02:18.604Z,10.84
2017-10-11T07:03:15.644Z,10.84
2017-10-11T07:04:15.531Z,10.89
2017-10-11T07:05:15.445Z,10.95
2017-10-11T07:06:15.582Z,11.03
2017-10-11T07:07:16.564Z,11.11
2017-10-11T07:08:15.913Z,11.14
2017-10-11T07:09:15.571Z,11.21
2017-10-11T07:10:15.784Z,11.34
2017-10-11T07:11:15.670Z,11.44
2017-10-11T07:12:16.171Z,11.53
2017-10-11T07:13:15.734Z,11.68
2017-10-11T07:14:15.455Z,11.86
2017-10-11T07:15:15.178Z,12.01
2017-10-11T07:16:15.227Z,12.15
2017-10-11T07:17:15.271Z,12.74
2017-10-11T07:18:15.382Z,13.24
2017-10-11T07:19:15.365Z,13.49
2017-10-11T07:20:15.408Z,13.99
2017-10-11T07:21:15.461Z,14.28
2017-10-11T07:22:15.505Z,14.12
2017-10-11T07:23:15.619Z,14.50
2017-10-11T07:24:15.606Z,15.09
2017-10-11T07:25:15.649Z,15.63
2017-10-11T07:26:15.699Z,15.92
2017-10-11T07:27:15.743Z,16.33
2017-10-11T07:28:15.855Z,16.80
2017-10-11T07:29:15.846Z,17.25
2017-10-11T07:30:15.886Z,17.47
2017-10-11T07:31:15.936Z,17.62
2017-10-11T07:32:15.982Z,17.73
2017-10-11T07:33:16.193Z,18.06
2017-10-11T07:34:16.147Z,18.67
2017-10-11T07:35:16.128Z,18.77
2017-10-11T07:36:16.177Z,18.94
2017-10-11T07:37:16.227Z,18.73
2017-10-11T07:38:16.275Z,18.76
2017-10-11T07:39:16.393Z,18.77
2017-10-11T07:40:16.374Z,18.86
2017-10-11T07:41:16.429Z,19.10
2017-10-11T07:42:16.470Z,18.86
2017-10-11T07:43:16.529Z,18.79
2017-10-11T07:44:16.635Z,18.94
2017-10-11T07:45:16.627Z,19.11
2017-10-11T07:46:16.673Z,18.83
2017-10-11T07:47:16.720Z,18.68
2017-10-11T07:48:16.773Z,18.44
2017-10-11T07:49:16.889Z,18.52
2017-10-11T07:50:16.873Z,18.64
2017-10-11T07:51:16.920Z,18.47
2017-10-11T07:52:16.969Z,18.82
2017-10-11T07:53:17.022Z,18.98
2017-10-11T07:54:17.134Z,19.25
2017-10-11T07:55:17.130Z,19.23
2017-10-11T07:56:17.171Z,19.65
2017-10-11T07:57:17.221Z,19.70
2017-10-11T07:58:17.273Z,20.12
2017-10-11T07:59:17.386Z,20.21
2017-10-11T08:00:17.377Z,19.95
2017-10-11T08:01:17.424Z,19.94
2017-10-11T08:02:17.478Z,19.90
2017-10-11T08:03:17.525Z,19.51
2017-10-11T08:04:17.641Z,19.43
2017-10-11T08:05:17.632Z,19.05
2017-10-11T08:06:17.678Z,18.86
2017-10-11T08:07:17.749Z,19.02
2017-10-11T08:08:17.780Z,19.06
2017-10-11T08:09:17.895Z,19.02
2017-10-11T08:10:17.884Z,19.10
2017-10-11T08:11:17.933Z,19.13
2017-10-11T08:12:17.998Z,19.46
2017-10-11T08:13:18.037Z,19.55
2017-10-11T08:14:18.173Z,19.58
2017-10-11T08:15:18.144Z,19.57
2017-10-11T08:16:18.191Z,19.86
2017-10-11T08:17:18.258Z,19.65
2017-10-11T08:18:18.292Z,19.83
2017-10-11T08:19:18.426Z,19.83
2017-10-11T08:20:18.396Z,19.79
2017-10-11T08:21:18.450Z,19.84
2017-10-11T08:22:18.497Z,20.10
2017-10-11T08:23:18.549Z,20.08
2017-10-11T08:24:18.672Z,20.23
2017-10-11T08:25:18.654Z,20.23
2017-10-11T08:26:18.705Z,20.25
2017-10-11T08:27:18.757Z,20.49
2017-10-11T08:28:18.809Z,20.35
2017-10-11T08:29:18.936Z,19.39
2017-10-11T08:30:18.913Z,18.80
2017-10-11T08:31:18.965Z,18.65
2017-10-11T08:32:19.017Z,18.58
2017-10-11T08:33:19.077Z,17.99
2017-10-11T08:34:19.190Z,18.02
2017-10-11T08:35:19.172Z,18.54
2017-10-11T08:36:19.225Z,18.73
2017-10-11T08:37:19.279Z,18.55
2017-10-11T08:38:19.326Z,17.64
2017-10-11T08:39:19.463Z,17.25
2017-10-11T08:40:19.430Z,17.74
2017-10-11T08:41:19.486Z,18.29
2017-10-11T08:42:19.537Z,18.80
2017-10-11T08:43:19.586Z,18.80
2017-10-11T08:44:19.705Z,19.25
2017-10-11T08:45:19.758Z,19.38
2017-10-11T08:46:19.745Z,19.23
2017-10-11T08:47:19.797Z,19.33
2017-10-11T08:48:19.851Z,19.20
2017-10-11T08:49:19.904Z,18.98
2017-10-11T08:50:20.016Z,19.23
2017-10-11T08:51:20.008Z,19.13
2017-10-11T08:52:20.057Z,18.82
2017-10-11T08:53:20.116Z,18.90
2017-10-11T08:54:20.161Z,18.98
2017-10-11T08:55:20.279Z,18.95
2017-10-11T08:56:20.268Z,19.35
2017-10-11T08:57:20.320Z,19.54
2017-10-11T08:58:20.371Z,19.69
2017-10-11T08:59:20.431Z,19.95
2017-10-11T09:00:20.541Z,19.83
2017-10-11T09:01:20.531Z,20.09
2017-10-11T09:02:20.582Z,19.43
2017-10-11T09:03:20.636Z,19.57
2017-10-11T09:04:20.689Z,19.63
2017-10-11T09:05:20.807Z,19.98
2017-10-11T09:06:20.798Z,19.88
2017-10-11T09:07:20.847Z,19.63
2017-10-11T09:08:20.905Z,19.18
2017-10-11T09:09:20.959Z,18.64
2017-10-11T09:10:21.126Z,18.61
2017-10-11T09:11:21.063Z,18.82
2017-10-11T09:12:21.118Z,18.82
2017-10-11T09:13:21.169Z,19.05
2017-10-11T09:14:21.222Z,18.64
2017-10-11T09:15:21.341Z,18.49
2017-10-11T09:16:21.330Z,18.82
2017-10-11T09:17:21.384Z,19.18
2017-10-11T09:18:21.435Z,19.20
2017-10-11T09:19:21.492Z,18.87
2017-10-11T09:20:21.608Z,18.80
2017-10-11T09:21:21.599Z,17.92
2017-10-11T09:22:21.652Z,17.35
2017-10-11T09:23:21.703Z,17.84
2017-10-11T09:24:21.758Z,18.37
2017-10-11T09:25:21.897Z,18.49
2017-10-11T09:26:21.862Z,18.64
2017-10-11T09:27:21.919Z,18.77
2017-10-11T09:28:21.971Z,18.80
2017-10-11T09:29:22.023Z,19.29
2017-10-11T09:30:22.144Z,19.65
2017-10-11T09:31:22.196Z,20.09
2017-10-11T09:32:22.185Z,20.42
2017-10-11T09:33:22.243Z,20.79
2017-10-11T09:34:22.291Z,21.06
2017-10-11T09:35:22.348Z,20.86
2017-10-11T09:36:22.464Z,20.65
2017-10-11T09:37:22.457Z,20.59
2017-10-11T09:38:22.509Z,20.00
2017-10-11T09:39:22.564Z,19.48
2017-10-11T09:40:22.621Z,19.02
2017-10-11T09:41:22.742Z,19.28
2017-10-11T09:42:22.728Z,19.61
2017-10-11T09:43:22.790Z,19.35
2017-10-11T09:44:22.839Z,19.53
2017-10-11T09:45:22.895Z,19.38
2017-10-11T09:46:23.010Z,19.11
2017-10-11T09:47:23.015Z,18.34
2017-10-11T09:48:23.058Z,18.27
2017-10-11T09:49:23.110Z,18.55
2017-10-11T09:50:23.165Z,18.83
2017-10-11T09:51:23.287Z,18.86
2017-10-11T09:52:23.274Z,19.40
2017-10-11T09:53:23.329Z,19.48
2017-10-11T09:54:23.384Z,19.51
2017-10-11T09:55:23.438Z,19.32
2017-10-11T09:56:23.561Z,19.54
2017-10-11T09:57:23.550Z,19.83
2017-10-11T09:58:23.602Z,19.40
2017-10-11T09:59:23.657Z,19.08
2017-10-11T10:00:23.711Z,19.20
2017-10-11T10:01:23.849Z,18.64
2017-10-11T10:02:23.821Z,18.42
2017-10-11T10:03:23.875Z,18.70
2017-10-11T10:04:23.930Z,18.44
2017-10-11T10:05:23.987Z,18.43
2017-10-11T10:06:24.111Z,18.77
2017-10-11T10:07:24.165Z,18.76
2017-10-11T10:08:24.149Z,18.49
2017-10-11T10:09:24.205Z,18.83
2017-10-11T10:10:24.258Z,19.25
2017-10-11T10:11:24.315Z,19.15
2017-10-11T10:12:24.433Z,18.72
2017-10-11T10:13:24.421Z,19.05
2017-10-11T10:14:24.482Z,19.42
2017-10-11T10:15:24.531Z,18.70
2017-10-11T10:16:24.586Z,17.99
2017-10-11T10:17:24.720Z,17.73
2017-10-11T10:18:24.696Z,17.70
2017-10-11T10:19:24.750Z,17.53
2017-10-11T10:20:24.804Z,17.85
2017-10-11T10:21:24.860Z,18.34
2017-10-11T10:22:24.977Z,18.47
2017-10-11T10:23:24.968Z,18.12
2017-10-11T10:24:25.023Z,17.91
2017-10-11T10:25:25.078Z,17.99
2017-10-11T10:26:25.130Z,18.31
2017-10-11T10:27:25.248Z,18.62
2017-10-11T10:28:25.239Z,18.77
2017-10-11T10:29:25.294Z,19.18
2017-10-11T10:30:25.350Z,19.58
2017-10-11T10:31:25.403Z,19.91
2017-10-11T10:32:25.524Z,20.18
2017-10-11T10:33:25.511Z,19.40
2017-10-11T10:34:25.562Z,18.87
2017-10-11T10:35:25.621Z,18.72
2017-10-11T10:36:25.671Z,18.73
2017-10-11T10:37:25.866Z,18.95
2017-10-11T10:38:25.780Z,19.08
2017-10-11T10:39:25.832Z,19.50
2017-10-11T10:40:25.886Z,19.84
2017-10-11T10:41:25.942Z,19.97
2017-10-11T10:42:26.062Z,19.84
2017-10-11T10:43:26.115Z,19.60
2017-10-11T10:44:26.106Z,19.51
2017-10-11T10:45:26.162Z,19.48
2017-10-11T10:46:26.215Z,19.75
2017-10-11T10:47:26.269Z,18.91
2017-10-11T10:48:26.387Z,18.33
2017-10-11T10:49:26.379Z,18.34
2017-10-11T10:50:26.434Z,18.52
2017-10-11T10:51:26.488Z,18.79
2017-10-11T10:52:26.543Z,19.24
2017-10-11T10:53:26.667Z,19.68
2017-10-11T10:54:26.654Z,20.16
2017-10-11T10:55:26.709Z,20.43
2017-10-11T10:56:26.763Z,20.20
2017-10-11T10:57:26.816Z,19.50
2017-10-11T10:58:26.936Z,18.90
2017-10-11T10:59:26.930Z,18.74
2017-10-11T11:00:26.982Z,19.08
2017-10-11T11:01:27.376Z,19.11
2017-10-11T11:02:27.140Z,18.87
2017-10-11T11:03:27.209Z,18.62
2017-10-11T11:04:27.201Z,18.76
2017-10-11T11:05:27.258Z,18.92
2017-10-11T11:06:27.313Z,18.74
2017-10-11T11:07:27.365Z,18.25
2017-10-11T11:08:27.484Z,18.58
2017-10-11T11:09:27.474Z,18.67
2017-10-11T11:10:27.528Z,18.07
2017-10-11T11:11:27.589Z,18.36
2017-10-11T11:12:27.637Z,18.86
2017-10-11T11:13:27.775Z,19.21
2017-10-11T11:14:27.747Z,19.24
2017-10-11T11:15:27.804Z,19.25
2017-10-11T11:16:27.859Z,18.95
2017-10-11T11:17:27.912Z,18.77
2017-10-11T11:18:28.030Z,18.29
2017-10-11T11:19:28.087Z,18.67
2017-10-11T11:20:28.075Z,18.49
2017-10-11T11:21:28.135Z,18.42
2017-10-11T11:22:28.182Z,18.83
2017-10-11T11:23:28.237Z,18.91
2017-10-11T11:24:28.361Z,18.24
2017-10-11T11:25:28.348Z,18.06
2017-10-11T11:26:28.400Z,17.89
2017-10-11T11:27:28.454Z,18.22
2017-10-11T11:28:28.513Z,18.29
2017-10-11T11:29:28.628Z,18.62
2017-10-11T11:30:28.616Z,18.92
2017-10-11T11:31:28.679Z,19.06
2017-10-11T11:32:28.728Z,18.90
2017-10-11T11:33:28.783Z,18.74
2017-10-11T11:34:28.898Z,18.42
2017-10-11T11:35:28.889Z,18.70
2017-10-11T11:36:28.945Z,18.94
2017-10-11T11:37:28.998Z,19.08
2017-10-11T11:38:29.051Z,19.10
2017-10-11T11:39:29.177Z,18.94
2017-10-11T11:40:29.160Z,18.55
2017-10-11T11:41:29.217Z,18.59
2017-10-11T11:42:29.270Z,18.82
2017-10-11T11:43:29.328Z,18.44
2017-10-11T11:44:29.442Z,18.67
2017-10-11T11:45:29.438Z,19.05
2017-10-11T11:46:29.498Z,18.87
2017-10-11T11:47:29.545Z,19.13
2017-10-11T11:48:29.597Z,19.38
2017-10-11T11:49:29.744Z,19.83
2017-10-11T11:50:29.704Z,20.23
2017-10-11T11:51:29.761Z,20.65
2017-10-11T11:52:29.818Z,20.89
2017-10-11T11:53:29.870Z,21.01
2017-10-11T11:54:30.001Z,21.20
2017-10-11T11:55:29.983Z,21.38
2017-10-11T11:56:30.034Z,21.16
2017-10-11T11:57:30.092Z,20.64
2017-10-11T11:58:30.148Z,20.62
2017-10-11T11:59:30.267Z,19.93
2017-10-11T12:00:30.324Z,20.09
2017-10-11T12:01:30.329Z,19.76
2017-10-11T12:02:30.367Z,19.13
2017-10-11T12:03:30.427Z,18.82
2017-10-11T12:04:30.479Z,18.43
2017-10-11T12:05:30.603Z,18.21
2017-10-11T12:06:30.589Z,18.15
2017-10-11T12:07:30.646Z,18.49
2017-10-11T12:08:30.701Z,19.02
2017-10-11T12:09:30.761Z,19.24
2017-10-11T12:10:30.993Z,18.92
2017-10-11T12:11:30.870Z,18.95
2017-10-11T12:12:30.927Z,18.87
2017-10-11T12:13:30.978Z,18.37
2017-10-11T12:14:31.034Z,18.52
2017-10-11T12:15:31.152Z,18.84
2017-10-11T12:16:31.146Z,19.10
2017-10-11T12:17:31.203Z,18.83
2017-10-11T12:18:31.252Z,18.97
2017-10-11T12:19:31.310Z,19.13
2017-10-11T12:20:31.450Z,19.15
2017-10-11T12:21:31.424Z,19.05
2017-10-11T12:22:31.476Z,19.13
2017-10-11T12:23:31.533Z,19.29
2017-10-11T12:24:31.588Z,19.61
2017-10-11T12:25:31.728Z,20.02
2017-10-11T12:26:31.700Z,20.24
2017-10-11T12:27:31.757Z,20.13
2017-10-11T12:28:31.812Z,19.93
2017-10-11T12:29:31.866Z,19.46
2017-10-11T12:30:32.006Z,19.42
2017-10-11T12:31:31.981Z,19.65
2017-10-11T12:32:32.038Z,19.21
2017-10-11T12:33:32.092Z,19.14
2017-10-11T12:34:32.147Z,18.70
2017-10-11T12:35:32.265Z,18.54
2017-10-11T12:36:32.323Z,18.86
2017-10-11T12:37:32.316Z,19.18
2017-10-11T12:38:32.372Z,19.29
2017-10-11T12:39:32.426Z,18.95
2017-10-11T12:40:32.566Z,18.97
2017-10-11T12:41:32.543Z,18.49
2017-10-11T12:42:32.595Z,18.43
2017-10-11T12:43:32.650Z,18.00
2017-10-11T12:44:32.707Z,17.63
2017-10-11T12:45:32.844Z,17.70
2017-10-11T12:46:32.822Z,17.73
2017-10-11T12:47:32.871Z,17.92
2017-10-11T12:48:32.926Z,18.15
2017-10-11T12:49:32.980Z,18.34
2017-10-11T12:50:33.123Z,18.28
2017-10-11T12:51:33.089Z,18.02
2017-10-11T12:52:33.139Z,18.19
2017-10-11T12:53:33.201Z,18.46
2017-10-11T12:54:33.245Z,18.86
2017-10-11T12:55:33.383Z,18.94
2017-10-11T12:56:33.352Z,19.28
2017-10-11T12:57:33.408Z,19.39
2017-10-11T12:58:33.456Z,19.63
2017-10-11T12:59:33.518Z,19.73
2017-10-11T13:00:33.634Z,19.28
2017-10-11T13:01:33.618Z,19.20
2017-10-11T13:02:33.677Z,19.32
2017-10-11T13:03:33.727Z,19.33
2017-10-11T13:04:33.781Z,19.57
2017-10-11T13:05:33.903Z,19.69
2017-10-11T13:06:33.954Z,19.90